Time;durP1;ratioP1;P1;durP2;ratioP2;P2;SDS_P1;SDS_P2;PMS_P1;PMS_P2;Temp;Humidity;BMP_temperature;BMP_pressure;BME280_temperature;BME280_humidity;BME280_pressure;Samples;Min_cycle;Max_cycle;Signal;HPM_P1;HPM_P2
2022/03/31 00:02:08;;;;;;;15.25;8.73;;;5.50;99.90;;;;;;5053800;28;20060;-78
2022/03/31 00:04:34;;;;;;;19.45;9.20;;;5.50;99.90;;;;;;5031369;28;20025;-79
2022/03/31 00:07:00;;;;;;;18.27;8.90;;;5.50;99.90;;;;;;5019023;28;20464;-79
2022/03/31 00:09:25;;;;;;;16.88;9.10;;;5.50;99.90;;;;;;5036282;28;20067;-77
2022/03/31 00:11:51;;;;;;;17.08;9.70;;;5.50;99.90;;;;;;5035854;28;20026;-78
2022/03/31 00:14:17;;;;;;;18.58;9.18;;;5.50;99.90;;;;;;5018521;28;20036;-80
2022/03/31 00:16:42;;;;;;;17.52;9.60;;;5.50;99.90;;;;;;5017758;28;20029;-78
2022/03/31 00:19:08;;;;;;;17.15;9.93;;;5.50;99.90;;;;;;5017704;28;20436;-77
2022/03/31 00:21:34;;;;;;;18.42;8.73;;;5.40;99.90;;;;;;5018602;28;20033;-77
2022/03/31 00:23:59;;;;;;;19.65;10.63;;;5.40;99.90;;;;;;5018989;28;20025;-78
2022/03/31 00:26:25;;;;;;;16.35;9.32;;;5.40;99.90;;;;;;5019305;28;20029;-78
2022/03/31 00:28:50;;;;;;;18.02;10.27;;;5.40;99.90;;;;;;5036724;28;20022;-77
2022/03/31 00:31:16;;;;;;;26.00;9.82;;;5.40;99.90;;;;;;5037206;28;20017;-77
2022/03/31 00:33:42;;;;;;;19.48;10.85;;;5.40;99.90;;;;;;5037556;28;20021;-81
2022/03/31 00:36:07;;;;;;;22.80;10.82;;;5.40;99.90;;;;;;5019652;28;20018;-78
2022/03/31 00:38:33;;;;;;;18.67;10.05;;;5.40;99.90;;;;;;5019303;28;20090;-78
2022/03/31 00:40:58;;;;;;;15.65;10.25;;;5.40;99.90;;;;;;5037608;28;20029;-77
2022/03/31 00:43:24;;;;;;;19.60;10.18;;;5.40;99.90;;;;;;5037627;28;20027;-77
2022/03/31 00:45:51;;;;;;;18.88;11.30;;;5.40;99.90;;;;;;5055038;28;20025;-79
2022/03/31 00:48:19;;;;;;;21.15;10.05;;;5.30;99.90;;;;;;5038350;28;20063;-79
2022/03/31 00:50:45;;;;;;;19.42;10.25;;;5.30;99.90;;;;;;5038252;28;20036;-79
2022/03/31 00:53:11;;;;;;;15.77;9.75;;;5.30;99.90;;;;;;5055682;28;20025;-78
2022/03/31 00:55:37;;;;;;;17.10;10.30;;;5.30;99.90;;;;;;5038563;28;20372;-79
2022/03/31 00:58:03;;;;;;;22.75;11.48;;;5.30;99.90;;;;;;5056336;28;20520;-79
2022/03/31 01:00:29;;;;;;;17.10;10.80;;;5.30;99.90;;;;;;5056583;28;20029;-79
2022/03/31 01:02:55;;;;;;;19.77;10.88;;;5.30;99.90;;;;;;5038655;28;20024;-80
2022/03/31 01:05:20;;;;;;;19.05;11.13;;;5.30;99.90;;;;;;5038839;28;20116;-80
2022/03/31 01:07:46;;;;;;;19.95;13.48;;;5.20;99.90;;;;;;5056088;28;20025;-80
2022/03/31 01:10:13;;;;;;;19.58;11.10;;;5.20;99.90;;;;;;5056203;28;20373;-78
2022/03/31 01:12:39;;;;;;;25.30;11.50;;;5.20;99.90;;;;;;5056686;28;20020;-80
2022/03/31 01:15:17;;;;;;;23.52;12.30;;;5.20;99.90;;;;;;5037534;28;20033;-79
2022/03/31 01:17:45;;;;;;;21.83;12.43;;;5.20;99.90;;;;;;5038568;28;20071;-78
2022/03/31 01:20:14;;;;;;;26.25;12.82;;;5.20;99.90;;;;;;5055651;28;20088;-77
2022/03/31 01:22:41;;;;;;;23.10;12.90;;;5.20;99.90;;;;;;5057726;28;20029;-79
2022/03/31 01:25:08;;;;;;;19.48;13.02;;;5.20;99.90;;;;;;5056969;28;20179;-80
2022/03/31 01:27:40;;;;;;;23.35;12.82;;;5.10;99.90;;;;;;5056567;28;20142;-78
2022/03/31 01:30:07;;;;;;;20.27;12.27;;;5.10;99.90;;;;;;5038279;28;20021;-79
2022/03/31 01:32:33;;;;;;;26.45;13.15;;;5.10;99.90;;;;;;5057925;28;20075;-80
2022/03/31 01:34:58;;;;;;;23.63;12.88;;;5.00;99.90;;;;;;5057863;28;20037;-78
2022/03/31 01:37:24;;;;;;;20.27;13.30;;;5.00;99.90;;;;;;5039850;28;20047;-77
2022/03/31 01:39:49;;;;;;;27.25;14.23;;;5.00;99.90;;;;;;5040132;28;20035;-79
2022/03/31 01:42:15;;;;;;;24.55;13.50;;;5.00;99.90;;;;;;5040256;28;20035;-77
2022/03/31 01:44:41;;;;;;;22.85;13.27;;;5.00;99.90;;;;;;5049094;28;20033;-80
2022/03/31 01:47:07;;;;;;;24.30;14.48;;;5.00;99.90;;;;;;5020396;28;20028;-78
2022/03/31 01:49:35;;;;;;;23.35;13.45;;;5.00;99.90;;;;;;5020270;28;20088;-77
2022/03/31 01:52:01;;;;;;;24.23;13.85;;;5.00;99.90;;;;;;5038928;28;20511;-78
2022/03/31 01:54:26;;;;;;;27.10;15.35;;;4.90;99.90;;;;;;5039982;28;20045;-81
2022/03/31 01:56:52;;;;;;;27.10;14.88;;;5.00;99.90;;;;;;5022465;28;20477;-81
2022/03/31 01:59:18;;;;;;;21.83;13.15;;;4.90;99.90;;;;;;5021516;28;20143;-82
2022/03/31 02:01:43;;;;;;;24.88;15.23;;;4.90;99.90;;;;;;5042467;28;20040;-82
2022/03/31 02:04:09;;;;;;;23.63;14.43;;;5.00;99.90;;;;;;5045070;28;20029;-81
2022/03/31 02:06:34;;;;;;;24.67;15.68;;;4.90;99.90;;;;;;5043847;28;20064;-79
2022/03/31 02:09:00;;;;;;;26.02;14.27;;;4.90;99.90;;;;;;5025863;28;20025;-83
2022/03/31 02:11:25;;;;;;;23.80;15.85;;;4.90;99.90;;;;;;5042998;28;20113;-80
2022/03/31 02:13:53;;;;;;;25.27;15.27;;;4.90;99.90;;;;;;5038915;28;20041;-79
2022/03/31 02:16:18;;;;;;;24.30;15.30;;;5.00;99.90;;;;;;5032171;28;20099;-78
2022/03/31 02:18:45;;;;;;;23.25;15.25;;;4.90;99.90;;;;;;5031820;28;20033;-79
2022/03/31 02:21:11;;;;;;;30.05;15.75;;;4.90;99.90;;;;;;5014269;28;20480;-79
2022/03/31 02:23:37;;;;;;;24.42;14.55;;;4.80;99.90;;;;;;5014056;28;20038;-79
2022/03/31 02:26:03;;;;;;;33.22;16.17;;;4.80;99.90;;;;;;5032652;28;20503;-80
2022/03/31 02:28:28;;;;;;;24.70;15.57;;;4.90;99.90;;;;;;5017029;28;20389;-79
2022/03/31 02:30:54;;;;;;;27.58;14.98;;;4.90;99.90;;;;;;5041933;28;20500;-81
2022/03/31 02:33:19;;;;;;;25.23;15.02;;;4.90;99.90;;;;;;5017853;28;20084;-80
2022/03/31 02:35:46;;;;;;;26.95;15.35;;;4.90;99.90;;;;;;5035482;28;20018;-80
2022/03/31 02:38:12;;;;;;;25.05;14.68;;;4.90;99.90;;;;;;5017259;28;20037;-78
2022/03/31 02:40:38;;;;;;;28.10;15.23;;;4.90;99.90;;;;;;5017056;28;20063;-79
2022/03/31 02:43:04;;;;;;;27.23;15.07;;;4.90;99.90;;;;;;5018013;28;20021;-81
2022/03/31 02:45:29;;;;;;;29.27;14.70;;;4.90;99.90;;;;;;5033988;28;20063;-80
2022/03/31 02:47:55;;;;;;;25.65;14.52;;;4.80;99.90;;;;;;5036819;28;20291;-79
2022/03/31 02:50:20;;;;;;;23.02;15.15;;;4.90;99.90;;;;;;5036565;28;20025;-78
2022/03/31 02:55:31;;;;;;;33.22;16.58;;;4.80;99.90;;;;;;5056139;28;20503;-81
2022/03/31 02:58:01;;;;;;;24.65;14.90;;;4.80;99.90;;;;;;5056358;28;20029;-76
2022/03/31 03:00:32;;;;;;;24.13;15.57;;;4.90;99.90;;;;;;5038988;28;20515;-78
2022/03/31 03:02:59;;;;;;;28.98;15.80;;;4.80;99.90;;;;;;5037779;28;20083;-79
2022/03/31 03:05:25;;;;;;;26.35;15.93;;;4.80;99.90;;;;;;5057332;28;20025;-78
2022/03/31 03:07:51;;;;;;;27.70;15.50;;;4.80;99.90;;;;;;5036478;28;20017;-78
2022/03/31 03:10:17;;;;;;;24.92;15.80;;;4.90;99.90;;;;;;5039388;28;20021;-79
2022/03/31 03:12:42;;;;;;;27.42;17.52;;;4.90;99.90;;;;;;5056122;28;20027;-78
2022/03/31 03:15:12;;;;;;;29.67;16.73;;;4.90;99.90;;;;;;5056385;28;20476;-78
2022/03/31 03:17:42;;;;;;;30.80;16.80;;;4.90;99.90;;;;;;5056044;28;20032;-78
2022/03/31 03:20:13;;;;;;;28.35;17.00;;;4.90;99.90;;;;;;5056038;28;20021;-78
2022/03/31 03:22:43;;;;;;;29.52;17.33;;;4.90;99.90;;;;;;5038550;28;20088;-79
2022/03/31 03:25:09;;;;;;;31.83;15.55;;;4.90;99.90;;;;;;5037652;28;20052;-78
2022/03/31 03:27:35;;;;;;;28.45;16.45;;;5.00;99.90;;;;;;5055419;28;20112;-78
2022/03/31 03:30:00;;;;;;;29.77;17.25;;;5.00;99.90;;;;;;5037693;28;20021;-80
2022/03/31 03:32:26;;;;;;;29.42;16.38;;;4.90;99.90;;;;;;5038653;28;20025;-78
2022/03/31 03:34:52;;;;;;;27.27;16.52;;;4.90;99.90;;;;;;5055390;28;20028;-78
2022/03/31 03:37:17;;;;;;;28.58;17.58;;;4.90;99.90;;;;;;5053416;28;20136;-80
2022/03/31 03:39:44;;;;;;;29.02;16.83;;;4.90;99.90;;;;;;5036622;28;20025;-78
2022/03/31 03:42:10;;;;;;;31.23;17.50;;;4.90;99.90;;;;;;5036472;28;20512;-79
2022/03/31 03:44:35;;;;;;;35.75;17.73;;;4.90;99.90;;;;;;5047259;28;20112;-79
2022/03/31 03:47:01;;;;;;;28.63;17.20;;;4.90;99.90;;;;;;5020390;28;20021;-80
2022/03/31 03:49:27;;;;;;;35.55;18.42;;;4.90;99.90;;;;;;5034937;28;20025;-78
2022/03/31 03:51:52;;;;;;;31.63;18.27;;;4.90;99.90;;;;;;5035605;28;20025;-78
2022/03/31 03:54:18;;;;;;;30.25;17.50;;;4.90;99.90;;;;;;5017239;28;20429;-80
2022/03/31 03:56:43;;;;;;;30.55;17.90;;;4.90;99.90;;;;;;5017111;28;20481;-79
2022/03/31 03:59:09;;;;;;;32.33;18.58;;;5.00;99.90;;;;;;5016350;28;20392;-80
2022/03/31 04:01:35;;;;;;;27.10;18.15;;;4.90;99.90;;;;;;5016569;28;20063;-78
2022/03/31 04:04:00;;;;;;;30.25;17.60;;;4.90;99.90;;;;;;5017896;28;20025;-80
2022/03/31 04:06:26;;;;;;;30.80;18.25;;;4.90;99.90;;;;;;5025931;28;20116;-80
2022/03/31 04:08:52;;;;;;;31.27;18.10;;;4.90;99.90;;;;;;5053694;28;20369;-81
2022/03/31 04:11:17;;;;;;;32.28;18.80;;;4.90;99.90;;;;;;5054695;28;20389;-81
2022/03/31 04:13:43;;;;;;;34.65;19.75;;;4.90;99.90;;;;;;5038352;28;20495;-81
2022/03/31 04:16:09;;;;;;;36.63;17.98;;;4.90;99.90;;;;;;5055625;28;20044;-78
2022/03/31 04:18:34;;;;;;;31.52;17.25;;;4.90;99.90;;;;;;5073787;28;20028;-76
2022/03/31 04:21:02;;;;;;;30.48;17.35;;;4.90;99.90;;;;;;5055397;28;20032;-78
2022/03/31 04:23:28;;;;;;;32.38;18.15;;;4.90;99.90;;;;;;5064315;28;20025;-79
2022/03/31 04:25:54;;;;;;;31.75;19.25;;;4.90;99.90;;;;;;5042521;28;20036;-79
2022/03/31 04:28:20;;;;;;;33.60;18.27;;;4.90;99.90;;;;;;5041448;28;20021;-80
2022/03/31 04:30:45;;;;;;;31.88;18.08;;;4.90;99.90;;;;;;5039963;28;20054;-78
2022/03/31 04:33:11;;;;;;;32.72;19.67;;;4.90;99.90;;;;;;5055817;28;20131;-79
2022/03/31 04:35:36;;;;;;;31.98;18.38;;;4.90;99.90;;;;;;5054522;28;20036;-78
2022/03/31 04:38:03;;;;;;;32.55;19.10;;;4.90;99.90;;;;;;5036802;28;20021;-81
2022/03/31 04:40:29;;;;;;;33.58;19.20;;;4.90;99.90;;;;;;5055540;28;20020;-79
2022/03/31 04:42:55;;;;;;;38.20;20.40;;;4.90;99.90;;;;;;5036890;28;20021;-77
2022/03/31 04:45:20;;;;;;;34.53;18.15;;;4.90;99.90;;;;;;5021030;28;20033;-80
2022/03/31 04:47:46;;;;;;;30.67;19.40;;;4.90;99.90;;;;;;5018022;28;20112;-80
2022/03/31 04:50:13;;;;;;;31.27;19.40;;;4.90;99.90;;;;;;5036303;28;20053;-80
2022/03/31 04:52:39;;;;;;;34.65;20.40;;;5.00;99.90;;;;;;5018398;28;20048;-80
2022/03/31 04:55:05;;;;;;;32.45;19.95;;;5.00;99.90;;;;;;5035713;28;20030;-79
2022/03/31 04:57:31;;;;;;;32.78;18.80;;;5.00;99.90;;;;;;5034042;28;20029;-77
2022/03/31 04:59:57;;;;;;;33.45;18.88;;;5.00;99.90;;;;;;5036862;28;20044;-79
2022/03/31 05:02:22;;;;;;;37.72;19.30;;;5.00;99.90;;;;;;5018141;28;20225;-78
2022/03/31 05:04:48;;;;;;;35.55;19.55;;;5.00;99.90;;;;;;5016513;28;20029;-81
2022/03/31 05:07:13;;;;;;;32.85;20.02;;;4.90;99.90;;;;;;5017822;28;20032;-80
2022/03/31 05:09:41;;;;;;;37.10;20.60;;;4.90;99.90;;;;;;5044172;28;20056;-81
2022/03/31 05:12:08;;;;;;;32.83;18.95;;;5.00;99.90;;;;;;5046269;28;20075;-81
2022/03/31 05:14:34;;;;;;;35.00;20.38;;;5.00;99.90;;;;;;5043790;28;20029;-81
2022/03/31 05:17:00;;;;;;;34.97;19.50;;;5.00;99.90;;;;;;5027010;28;20030;-80
2022/03/31 05:19:26;;;;;;;33.17;19.77;;;4.90;99.90;;;;;;5044138;28;20047;-79
2022/03/31 05:21:53;;;;;;;31.17;19.35;;;4.90;99.90;;;;;;5027248;28;20045;-80
2022/03/31 05:24:19;;;;;;;39.15;21.52;;;4.90;99.90;;;;;;5044787;28;20117;-80
2022/03/31 05:26:45;;;;;;;36.42;21.20;;;4.90;99.90;;;;;;5023614;28;20064;-80
2022/03/31 05:29:13;;;;;;;35.33;21.02;;;4.90;99.90;;;;;;5021920;28;20026;-81
2022/03/31 05:31:39;;;;;;;39.40;22.33;;;5.00;99.90;;;;;;5034252;28;20108;-80
2022/03/31 05:34:05;;;;;;;36.38;20.95;;;5.00;99.90;;;;;;5034601;28;20025;-81
2022/03/31 05:36:32;;;;;;;43.85;22.52;;;4.90;99.90;;;;;;5022182;28;20052;-80
2022/03/31 05:38:58;;;;;;;38.20;21.52;;;5.00;99.90;;;;;;5051039;28;20025;-80
2022/03/31 05:41:25;;;;;;;35.90;21.38;;;5.00;99.90;;;;;;5066309;28;20314;-80
2022/03/31 05:43:50;;;;;;;40.38;20.08;;;5.00;99.90;;;;;;5064564;28;20272;-78
2022/03/31 05:46:17;;;;;;;38.78;20.73;;;5.10;99.90;;;;;;5046300;28;20108;-80
2022/03/31 05:48:42;;;;;;;36.42;20.38;;;5.00;99.90;;;;;;5047108;28;20563;-77
2022/03/31 05:51:08;;;;;;;34.67;21.30;;;5.10;99.90;;;;;;5046970;28;20056;-79
2022/03/31 05:53:34;;;;;;;35.88;19.05;;;5.10;99.90;;;;;;5045934;28;20106;-78
2022/03/31 05:55:59;;;;;;;34.50;19.95;;;5.00;99.90;;;;;;5046844;28;20146;-77
2022/03/31 05:58:26;;;;;;;32.65;19.88;;;5.10;99.90;;;;;;5027915;28;20373;-77
2022/03/31 06:00:53;;;;;;;37.65;21.08;;;5.10;99.90;;;;;;5047167;28;20033;-79
2022/03/31 06:03:22;;;;;;;35.42;19.73;;;5.10;99.90;;;;;;5032458;28;20029;-78
2022/03/31 06:05:50;;;;;;;33.85;19.67;;;5.10;99.90;;;;;;5031603;28;20096;-80
2022/03/31 06:08:17;;;;;;;29.38;17.58;;;5.10;99.90;;;;;;5058007;28;20041;-78
2022/03/31 06:10:44;;;;;;;32.90;19.38;;;5.10;99.90;;;;;;5050778;28;20048;-79
2022/03/31 06:13:09;;;;;;;32.88;18.63;;;5.20;99.90;;;;;;5067716;28;20048;-78
2022/03/31 06:15:35;;;;;;;30.88;17.42;;;5.20;99.90;;;;;;5042216;28;20021;-79
2022/03/31 06:18:01;;;;;;;28.98;17.45;;;5.20;99.90;;;;;;5042786;28;20021;-78
2022/03/31 06:20:28;;;;;;;32.25;17.42;;;5.20;99.90;;;;;;5042319;28;20033;-79
2022/03/31 06:22:54;;;;;;;32.38;17.77;;;5.20;99.90;;;;;;5059107;28;20028;-77
2022/03/31 06:25:20;;;;;;;29.00;16.50;;;5.30;99.90;;;;;;5039001;28;20029;-79
2022/03/31 06:27:47;;;;;;;27.90;17.40;;;5.20;99.90;;;;;;5057021;28;20025;-79
2022/03/31 06:30:13;;;;;;;33.22;17.58;;;5.30;99.90;;;;;;5035802;28;20031;-78
2022/03/31 06:32:39;;;;;;;31.33;16.77;;;5.30;99.90;;;;;;5039360;28;20052;-78
2022/03/31 06:35:05;;;;;;;24.98;14.65;;;5.30;99.90;;;;;;5039182;28;20029;-80
2022/03/31 06:37:31;;;;;;;31.58;15.88;;;5.40;99.90;;;;;;5056387;28;20025;-80
2022/03/31 06:39:57;;;;;;;25.50;14.82;;;5.40;99.90;;;;;;5038140;28;20527;-78
2022/03/31 06:42:22;;;;;;;32.08;15.00;;;5.40;99.90;;;;;;5052892;28;20146;-77
2022/03/31 06:44:48;;;;;;;25.25;15.70;;;5.40;99.90;;;;;;5028814;28;20108;-78
2022/03/31 06:47:14;;;;;;;28.85;14.05;;;5.40;99.90;;;;;;5045178;28;20025;-80
2022/03/31 06:49:39;;;;;;;27.27;14.20;;;5.50;99.90;;;;;;5042844;28;20080;-80
2022/03/31 06:52:05;;;;;;;23.83;13.27;;;5.50;99.90;;;;;;5044510;28;20187;-79
2022/03/31 06:54:31;;;;;;;20.58;13.13;;;5.50;99.90;;;;;;5064529;28;20052;-79
2022/03/31 06:56:57;;;;;;;21.85;13.63;;;5.50;99.90;;;;;;5046197;28;20021;-80
2022/03/31 06:59:23;;;;;;;23.50;13.93;;;5.40;99.90;;;;;;5060863;28;20021;-79
2022/03/31 07:01:49;;;;;;;25.20;14.75;;;5.40;99.90;;;;;;5064736;28;20032;-79
2022/03/31 07:04:15;;;;;;;22.52;12.70;;;5.40;99.90;;;;;;5046478;28;20092;-79
2022/03/31 07:06:40;;;;;;;24.65;14.55;;;5.40;99.90;;;;;;5061939;28;20031;-79
2022/03/31 07:09:07;;;;;;;21.27;12.98;;;5.40;99.90;;;;;;5061965;28;20056;-80
2022/03/31 07:11:34;;;;;;;24.40;13.90;;;5.40;99.90;;;;;;5061806;28;20047;-79
2022/03/31 07:14:01;;;;;;;24.85;13.45;;;5.50;99.90;;;;;;5044351;28;20364;-77
2022/03/31 07:16:28;;;;;;;24.80;12.93;;;5.50;99.90;;;;;;5054762;28;20018;-79
2022/03/31 07:18:54;;;;;;;24.60;13.77;;;5.60;99.90;;;;;;5042576;28;20476;-79
2022/03/31 07:21:20;;;;;;;24.42;13.57;;;5.70;99.90;;;;;;5042906;28;20032;-79
2022/03/31 07:23:48;;;;;;;22.40;12.77;;;5.80;99.90;;;;;;5041360;28;20031;-77
2022/03/31 07:26:14;;;;;;;21.05;12.32;;;5.80;99.90;;;;;;5041953;28;20108;-79
2022/03/31 07:28:41;;;;;;;20.15;12.25;;;5.90;99.90;;;;;;5058465;28;20104;-77
2022/03/31 07:31:07;;;;;;;22.40;12.32;;;5.90;99.90;;;;;;5042196;28;20021;-80
2022/03/31 07:33:34;;;;;;;22.95;12.43;;;5.90;99.90;;;;;;5043069;28;20094;-79
2022/03/31 07:35:59;;;;;;;21.45;12.80;;;5.90;99.90;;;;;;5044290;28;20021;-80
2022/03/31 07:38:25;;;;;;;22.75;12.32;;;6.00;99.90;;;;;;5040562;28;20067;-78
2022/03/31 07:40:51;;;;;;;22.30;12.57;;;6.00;99.90;;;;;;5056873;28;20127;-78
2022/03/31 07:43:18;;;;;;;22.90;12.55;;;6.00;99.90;;;;;;5057577;28;20439;-78
2022/03/31 07:45:45;;;;;;;20.55;12.98;;;6.00;99.90;;;;;;5039597;28;20029;-79
2022/03/31 07:48:15;;;;;;;26.20;12.38;;;6.10;99.90;;;;;;5036778;28;20025;-78
2022/03/31 07:50:41;;;;;;;22.67;13.60;;;6.10;99.90;;;;;;5019636;28;20488;-79
2022/03/31 07:53:08;;;;;;;25.83;13.25;;;6.20;99.90;;;;;;5038275;28;20017;-78
2022/03/31 07:55:34;;;;;;;23.40;13.07;;;6.20;99.90;;;;;;5037302;28;20051;-80
2022/03/31 07:57:59;;;;;;;19.65;13.27;;;6.10;99.90;;;;;;5020493;28;20092;-79
2022/03/31 08:00:25;;;;;;;21.92;13.48;;;6.20;99.90;;;;;;5038205;28;20420;-80
2022/03/31 08:02:52;;;;;;;21.73;12.75;;;6.20;99.90;;;;;;5021068;28;20172;-79
2022/03/31 08:05:25;;;;;;;21.25;13.23;;;6.40;99.90;;;;;;5020594;28;20092;-80
2022/03/31 08:07:51;;;;;;;22.23;13.10;;;6.30;99.90;;;;;;5042279;28;20025;-79
2022/03/31 08:10:18;;;;;;;24.17;12.45;;;6.30;99.90;;;;;;5039181;28;20391;-75
2022/03/31 08:12:45;;;;;;;19.27;12.15;;;6.30;99.90;;;;;;5057836;28;20077;-79
2022/03/31 08:15:12;;;;;;;21.63;11.73;;;6.40;99.90;;;;;;5040776;28;20025;-78
2022/03/31 08:17:38;;;;;;;22.10;12.73;;;6.40;99.90;;;;;;5057946;28;20028;-77
2022/03/31 08:20:06;;;;;;;18.23;11.32;;;6.40;99.90;;;;;;5038308;28;20029;-81
2022/03/31 08:22:34;;;;;;;24.00;13.23;;;6.40;99.90;;;;;;5066843;28;20411;-79
2022/03/31 08:25:01;;;;;;;23.52;13.52;;;6.30;99.90;;;;;;5049825;28;20101;-78
2022/03/31 08:27:27;;;;;;;26.27;14.40;;;6.40;99.90;;;;;;5057066;28;20075;-81
2022/03/31 08:29:53;;;;;;;26.10;14.88;;;6.40;99.90;;;;;;5066444;28;20017;-80
2022/03/31 08:32:19;;;;;;;29.73;16.10;;;6.40;99.90;;;;;;5066078;28;20033;-80
2022/03/31 08:34:45;;;;;;;25.88;15.35;;;6.40;99.90;;;;;;5038267;28;20037;-80
2022/03/31 08:37:10;;;;;;;26.10;14.52;;;6.30;99.90;;;;;;5022150;28;20022;-80
2022/03/31 08:39:36;;;;;;;28.10;15.68;;;6.40;99.90;;;;;;5019287;28;20033;-80
2022/03/31 08:42:06;;;;;;;28.75;15.65;;;6.50;99.90;;;;;;5021609;28;20036;-78
2022/03/31 08:44:36;;;;;;;25.05;14.93;;;6.60;99.90;;;;;;5031832;28;20055;-78
2022/03/31 08:47:02;;;;;;;27.50;15.18;;;6.60;99.90;;;;;;5043678;28;20192;-78
2022/03/31 08:49:29;;;;;;;28.70;14.48;;;6.80;99.90;;;;;;5047269;28;20032;-79
2022/03/31 08:51:56;;;;;;;25.83;15.07;;;6.90;99.90;;;;;;5042989;28;20039;-78
2022/03/31 08:54:21;;;;;;;26.70;13.73;;;7.10;99.90;;;;;;5043113;28;20056;-79
2022/03/31 08:56:48;;;;;;;26.00;13.65;;;7.20;99.90;;;;;;5029632;28;20060;-81
2022/03/31 08:59:13;;;;;;;25.13;14.77;;;7.30;99.90;;;;;;5025300;28;20025;-80
2022/03/31 09:01:39;;;;;;;26.90;15.55;;;7.40;99.90;;;;;;5020514;28;20029;-81
2022/03/31 09:04:17;;;;;;;24.60;15.05;;;7.50;99.90;;;;;;5039372;28;20465;-79
2022/03/31 09:06:43;;;;;;;26.45;15.57;;;7.40;99.90;;;;;;5022523;28;20086;-79
2022/03/31 09:09:10;;;;;;;27.75;15.35;;;7.20;99.90;;;;;;5036815;28;20037;-79
2022/03/31 09:11:37;;;;;;;33.10;15.65;;;7.10;99.90;;;;;;5037613;28;20079;-78
2022/03/31 09:14:05;;;;;;;31.15;16.35;;;7.00;99.90;;;;;;5020759;28;20026;-77
2022/03/31 09:16:37;;;;;;;33.58;17.05;;;6.90;99.90;;;;;;5038237;28;20454;-78
2022/03/31 09:19:04;;;;;;;26.88;15.70;;;6.90;99.90;;;;;;5021242;28;20036;-79
2022/03/31 09:21:31;;;;;;;26.08;15.23;;;7.00;99.90;;;;;;5021436;28;20444;-79
2022/03/31 09:23:58;;;;;;;25.58;15.35;;;7.10;99.90;;;;;;5020993;28;20275;-79
2022/03/31 09:26:27;;;;;;;26.73;15.15;;;7.20;99.90;;;;;;5038544;28;20037;-79
2022/03/31 09:28:55;;;;;;;27.85;14.77;;;7.20;99.90;;;;;;5038277;28;20408;-79
2022/03/31 09:31:25;;;;;;;23.70;14.38;;;7.20;99.90;;;;;;5036320;28;20424;-79
2022/03/31 09:33:58;;;;;;;27.45;14.23;;;7.20;99.90;;;;;;5023447;28;20490;-79
2022/03/31 09:36:25;;;;;;;27.38;15.27;;;7.20;99.90;;;;;;5039850;28;20029;-79
2022/03/31 09:39:00;;;;;;;27.42;15.38;;;7.10;99.90;;;;;;5021799;28;20053;-79
2022/03/31 09:41:28;;;;;;;28.43;15.30;;;7.20;99.90;;;;;;5022176;28;20056;-78
2022/03/31 09:43:55;;;;;;;27.65;15.45;;;7.40;99.90;;;;;;5039615;28;20318;-79
2022/03/31 09:46:38;;;;;;;23.70;14.80;;;7.40;99.90;;;;;;5058546;28;20117;-80
2022/03/31 09:49:13;;;;;;;24.40;15.60;;;7.40;99.90;;;;;;5056653;28;20029;-81
2022/03/31 09:51:39;;;;;;;33.75;17.55;;;7.40;99.90;;;;;;5038825;28;20119;-78
2022/03/31 09:54:05;;;;;;;35.03;17.02;;;7.30;99.90;;;;;;5056131;28;20051;-79
2022/03/31 09:56:38;;;;;;;33.22;16.40;;;7.40;99.90;;;;;;5037920;28;20021;-79
2022/03/31 09:59:06;;;;;;;31.42;18.20;;;7.50;99.90;;;;;;5037923;28;20522;-78
2022/03/31 10:01:33;;;;;;;31.02;18.50;;;7.60;99.90;;;;;;5039214;28;20036;-80
2022/03/31 10:04:00;;;;;;;29.65;17.80;;;7.80;99.90;;;;;;5056838;28;20040;-79
2022/03/31 10:06:26;;;;;;;28.38;17.63;;;7.80;99.90;;;;;;5040114;28;20028;-80
2022/03/31 10:08:53;;;;;;;28.85;17.45;;;7.90;99.90;;;;;;5037729;28;20124;-79
2022/03/31 10:11:22;;;;;;;31.08;18.08;;;8.00;99.90;;;;;;5040443;28;20025;-80
2022/03/31 10:14:00;;;;;;;34.00;18.02;;;7.90;99.90;;;;;;5038813;28;20037;-81
2022/03/31 10:16:38;;;;;;;31.67;17.85;;;7.80;99.90;;;;;;5040122;28;20033;-79
2022/03/31 10:19:04;;;;;;;32.13;19.00;;;8.00;99.90;;;;;;5039009;28;20029;-80
2022/03/31 10:21:30;;;;;;;29.77;18.65;;;8.10;99.90;;;;;;5056446;28;20020;-80
2022/03/31 10:26:41;;;;;;;30.02;17.10;;;8.40;99.90;;;;;;5055970;28;20087;-78
2022/03/31 10:29:15;;;;;;;27.40;17.05;;;8.40;99.90;;;;;;5057730;28;20030;-78
2022/03/31 10:31:46;;;;;;;27.35;17.63;;;8.50;99.90;;;;;;5039500;28;20107;-79
2022/03/31 10:34:14;;;;;;;34.25;17.50;;;8.60;99.90;;;;;;5057749;28;20056;-78
2022/03/31 10:36:45;;;;;;;29.10;18.40;;;8.90;99.90;;;;;;5040599;28;20064;-80
2022/03/31 10:39:16;;;;;;;29.20;17.17;;;9.00;99.90;;;;;;5057757;28;20017;-80
2022/03/31 10:41:45;;;;;;;28.65;17.38;;;9.00;99.90;;;;;;5058719;28;20037;-80
2022/03/31 10:44:11;;;;;;;27.58;17.73;;;9.10;99.90;;;;;;5055428;28;20050;-79
2022/03/31 10:46:37;;;;;;;28.88;18.13;;;9.30;99.90;;;;;;5020729;28;20024;-80
2022/03/31 10:49:10;;;;;;;28.85;17.10;;;9.30;99.90;;;;;;5023910;28;20026;-80
2022/03/31 10:51:38;;;;;;;24.67;16.98;;;9.20;99.90;;;;;;5041818;28;20132;-80
2022/03/31 10:54:05;;;;;;;32.63;18.65;;;9.20;99.90;;;;;;5041464;28;20489;-80
2022/03/31 10:56:32;;;;;;;26.27;16.98;;;9.10;99.90;;;;;;5023054;28;20024;-81
2022/03/31 10:59:00;;;;;;;25.77;16.83;;;9.10;99.90;;;;;;5042335;28;20029;-79
2022/03/31 11:01:32;;;;;;;26.90;16.95;;;9.20;99.90;;;;;;5023856;28;20025;-78
2022/03/31 11:04:03;;;;;;;28.67;16.70;;;9.20;99.90;;;;;;5042263;28;20634;-79
2022/03/31 11:06:29;;;;;;;26.95;16.95;;;9.20;99.90;;;;;;5041196;28;20025;-81
2022/03/31 11:08:55;;;;;;;24.08;15.93;;;9.30;99.90;;;;;;5040061;28;20106;-77
2022/03/31 11:11:28;;;;;;;27.70;16.10;;;9.50;99.90;;;;;;5040698;28;20053;-81
2022/03/31 11:13:55;;;;;;;27.10;17.33;;;9.60;99.90;;;;;;5040425;28;20049;-80
2022/03/31 11:16:22;;;;;;;26.30;16.73;;;9.60;99.90;;;;;;5022370;28;20025;-79
2022/03/31 11:18:56;;;;;;;24.95;16.45;;;9.70;99.90;;;;;;5022236;28;20141;-80
2022/03/31 11:21:32;;;;;;;24.65;16.23;;;9.80;99.90;;;;;;5040637;28;20038;-80
2022/03/31 11:23:57;;;;;;;23.27;15.63;;;9.80;99.90;;;;;;5039655;28;20104;-80
2022/03/31 11:26:28;;;;;;;26.92;15.27;;;9.50;99.90;;;;;;5021994;28;20053;-80
2022/03/31 11:28:55;;;;;;;24.38;15.95;;;9.40;99.90;;;;;;5038395;28;20424;-79
2022/03/31 11:31:22;;;;;;;25.73;15.65;;;9.40;99.90;;;;;;5040013;28;20017;-80
2022/03/31 11:33:49;;;;;;;25.00;15.63;;;9.30;99.90;;;;;;5038845;28;20033;-80
2022/03/31 11:36:18;;;;;;;24.00;15.48;;;9.30;99.90;;;;;;5035661;28;20095;-78
2022/03/31 11:38:54;;;;;;;27.15;14.65;;;9.20;99.90;;;;;;5017251;28;20112;-79
2022/03/31 11:41:19;;;;;;;27.08;14.95;;;9.10;99.90;;;;;;5035528;28;20076;-79
2022/03/31 11:43:45;;;;;;;24.90;15.45;;;9.10;99.90;;;;;;5019333;28;20101;-77
2022/03/31 11:46:11;;;;;;;21.42;13.77;;;9.20;99.90;;;;;;5038374;28;20021;-78
2022/03/31 11:48:40;;;;;;;27.02;15.60;;;9.20;99.90;;;;;;5055752;28;20029;-78
2022/03/31 11:51:07;;;;;;;22.73;14.30;;;9.30;99.90;;;;;;5055939;28;20017;-79
2022/03/31 11:53:37;;;;;;;24.00;15.10;;;9.50;99.90;;;;;;5057148;28;20017;-79
2022/03/31 11:56:09;;;;;;;27.25;16.55;;;9.40;99.90;;;;;;5038806;28;20460;-78
2022/03/31 11:58:57;;;;;;;28.33;16.75;;;9.30;99.90;;;;;;5039492;28;20029;-80
2022/03/31 12:01:43;;;;;;;25.55;16.77;;;9.10;99.90;;;;;;5038863;28;20036;-79
2022/03/31 12:04:19;;;;;;;;;;;8.80;99.90;;;;;;5038441;28;20488;-79
2022/03/31 12:06:48;;;;;;;26.00;16.57;;;8.60;99.90;;;;;;5057081;28;20027;-80
2022/03/31 12:09:14;;;;;;;27.75;17.77;;;8.40;99.90;;;;;;5038266;28;20079;-79
2022/03/31 12:11:40;;;;;;;25.35;16.50;;;8.30;99.90;;;;;;5037497;28;20028;-78
2022/03/31 12:14:09;;;;;;;29.52;18.48;;;8.10;99.90;;;;;;5055420;28;20032;-77
2022/03/31 12:16:46;;;;;;;25.50;17.00;;;8.00;99.90;;;;;;5055766;28;20029;-79
2022/03/31 12:19:12;;;;;;;32.30;17.77;;;8.00;99.90;;;;;;5053818;28;20043;-79
2022/03/31 12:21:49;;;;;;;29.10;18.15;;;7.80;99.90;;;;;;5037631;28;20028;-78
2022/03/31 12:24:15;;;;;;;28.85;17.75;;;7.80;99.90;;;;;;5040119;28;20136;-79
2022/03/31 12:27:01;;;;;;;27.33;17.90;;;7.70;99.90;;;;;;5058708;28;20052;-79
2022/03/31 12:29:32;;;;;;;27.35;18.08;;;7.80;99.90;;;;;;5075056;28;20025;-78
2022/03/31 12:32:03;;;;;;;28.13;17.67;;;7.90;99.90;;;;;;5073532;28;20032;-80
2022/03/31 12:34:29;;;;;;;28.17;17.27;;;7.90;99.90;;;;;;5047671;28;20570;-78
2022/03/31 12:36:55;;;;;;;28.88;18.10;;;7.90;99.90;;;;;;5055539;28;20059;-79
2022/03/31 12:39:20;;;;;;;35.47;19.60;;;7.90;99.90;;;;;;5035322;28;20357;-78
2022/03/31 12:41:51;;;;;;;33.60;18.92;;;7.90;99.90;;;;;;5054650;28;20175;-79
2022/03/31 12:44:20;;;;;;;31.40;18.55;;;7.70;99.90;;;;;;5030150;28;20037;-79